Rib Lake, WI (54470)

3:15 PM CDT on July 23, 2016 (GMT -0500)
APRSWXNET | | Change Station

Elev 1509 ft 45.30 °N, 90.30 °W | Updated 37 minutes ago

Light Rain
Light Rain
75 °F
Feels Like 74 °F
N
3
Wind Variable Wind from SSW
Gusts 0.0 mph

Today
High -- | Low -- °F
--% Chance of Precip.
Yesterday
High -- | Low -- °F
Precip. -- in
Pressure 29.99 in
Visibility 7.0 miles
Clouds Scattered Clouds 1400 ft
Overcast 2100 ft
Heat Index 74 °F
Dew Point 72 °F
Humidity 90%
Rainfall in
Snow Depth Not available.
5:35 AM 8:38 PM
Waning Gibbous, 83% visible
METAR KMDZ 231955Z AUTO 23008KT 7SM -RA SCT014 OVC021 23/23 A2999 RMK AO2 LTG DSNT ALQS P0001 T02300230
Pressure 29.99 in
Visibility 7.0 miles
Clouds Scattered Clouds 1400 ft
Overcast 2100 ft
Heat Index 74 °F
Dew Point 72 °F
Humidity 90%
Rainfall in
Snow Depth Not available.
5:35 AM 8:38 PM
Waning Gibbous, 83% visible
METAR KMDZ 231955Z AUTO 23008KT 7SM -RA SCT014 OVC021 23/23 A2999 RMK AO2 LTG DSNT ALQS P0001 T02300230

10-Day Weather Forecast

Almanac

Astronomy

Jul. 23, 2016 Rise Set
Actual Time
Civil Twilight
Nautical Twilight
Astronomical Twilight
Moon
Length of Visible Light
Length of Day
Tomorrow will be .
, % of the Moon is Illuminated

Today's Extremes

State Highs State Lows

Community

WunderPhotos

Upload Photos

1,926,913 photos uploaded!

WunderBlog® & News

Nearby

Air Quality

  Air Quality AQ Index Pollutant
Not available.

Snow Depth

Station Depth Elevation

Earthquake Activity

City Distance Mag. Time & Date
Minimum magnitude displayed is 2.5.

Coastal Water Temperatures

Place Temperature

Stations

Nearby Weather Stations

Station Location Temp. Windchill Dew Point Humidity Wind Precip. Elev Updated Type
                   

Watches & Warnings

There are currently no watches in effect.